Time;durP1;ratioP1;P1;durP2;ratioP2;P2;SDS_P1;SDS_P2;PMS_P1;PMS_P2;Temp;Humidity;BMP_temperature;BMP_pressure;BME280_temperature;BME280_humidity;BME280_pressure;Samples;Min_cycle;Max_cycle;Signal;HPM_P1;HPM_P2
2022/12/22 03:28:14;;;;;;;12.37;10.30;;;8.50;99.90;;;;;;5066961;28;20206;-77
2022/12/22 03:30:40;;;;;;;14.83;10.97;;;8.60;99.90;;;;;;5059576;28;20199;-78
2022/12/22 03:33:07;;;;;;;13.50;10.73;;;8.60;99.90;;;;;;5070315;28;20190;-77
2022/12/22 03:35:34;;;;;;;14.83;10.63;;;8.60;99.90;;;;;;5068566;28;20226;-78
2022/12/22 03:38:02;;;;;;;12.17;9.93;;;8.70;99.90;;;;;;5052713;28;20183;-77
2022/12/22 03:40:31;;;;;;;15.53;11.10;;;8.70;99.90;;;;;;5064696;28;20567;-77
2022/12/22 03:48:27;;;;;;;15.30;11.47;;;8.70;99.90;;;;;;5068670;28;20211;-77
2022/12/22 03:50:53;;;;;;;16.77;11.47;;;8.80;99.90;;;;;;5071206;28;20217;-77
2022/12/22 03:53:21;;;;;;;16.93;10.90;;;8.80;99.90;;;;;;5033023;28;20205;-77
2022/12/22 03:55:47;;;;;;;15.30;11.40;;;8.70;99.90;;;;;;5039707;28;20182;-78
2022/12/22 03:58:13;;;;;;;17.20;12.03;;;8.70;99.90;;;;;;5086231;28;20245;-78
2022/12/22 04:00:40;;;;;;;17.77;11.37;;;8.70;99.90;;;;;;5069530;28;20221;-77
2022/12/22 04:03:07;;;;;;;16.40;11.53;;;8.70;99.90;;;;;;5084646;28;20240;-78
2022/12/22 04:05:33;;;;;;;14.53;10.83;;;8.70;99.90;;;;;;5069450;28;20189;-78
2022/12/22 04:07:59;;;;;;;16.37;11.40;;;8.70;99.90;;;;;;5081154;28;20260;-78
2022/12/22 04:13:11;;;;;;;16.33;11.20;;;8.70;99.90;;;;;;5076171;28;20182;-78
2022/12/22 04:15:39;;;;;;;16.77;12.20;;;8.70;99.90;;;;;;5058427;28;20567;-78
2022/12/22 04:18:05;;;;;;;17.43;11.53;;;8.70;99.90;;;;;;5091640;28;20194;-77
2022/12/22 04:20:34;;;;;;;17.37;12.10;;;8.80;99.90;;;;;;5070752;28;20213;-78
2022/12/22 04:23:01;;;;;;;17.07;12.57;;;8.80;99.90;;;;;;5066657;28;20198;-77
2022/12/22 04:25:28;;;;;;;15.73;12.00;;;8.80;99.90;;;;;;5048293;28;20184;-78
2022/12/22 04:27:54;;;;;;;17.37;13.17;;;8.80;99.90;;;;;;5067338;28;20216;-77
2022/12/22 04:30:21;;;;;;;18.47;12.90;;;8.70;99.90;;;;;;5079460;28;20233;-78
2022/12/22 04:32:47;;;;;;;18.20;13.23;;;8.70;99.90;;;;;;5070316;28;20906;-77
2022/12/22 04:35:14;;;;;;;17.60;12.40;;;8.80;99.90;;;;;;5050719;28;20687;-77
2022/12/22 04:37:40;;;;;;;17.03;12.93;;;8.80;99.90;;;;;;5070239;28;20277;-77
2022/12/22 04:40:07;;;;;;;15.23;12.63;;;8.70;99.90;;;;;;5060647;28;20191;-78
2022/12/22 04:42:33;;;;;;;18.37;12.57;;;8.70;99.90;;;;;;5067788;28;20226;-77
2022/12/22 04:44:59;;;;;;;16.17;13.23;;;8.80;99.90;;;;;;5056585;28;20199;-77
2022/12/22 04:47:26;;;;;;;15.13;12.67;;;8.80;99.90;;;;;;5069077;28;20217;-78
2022/12/22 04:49:54;;;;;;;17.30;11.97;;;8.70;99.90;;;;;;5074857;28;20182;-78
2022/12/22 04:52:21;;;;;;;21.20;13.40;;;8.70;99.90;;;;;;5069494;28;20647;-77
2022/12/22 04:54:48;;;;;;;20.27;13.80;;;8.80;99.90;;;;;;5083264;28;20524;-78
2022/12/22 04:57:15;;;;;;;23.23;13.07;;;8.80;99.90;;;;;;5066435;28;20209;-77
2022/12/22 04:59:42;;;;;;;20.03;13.67;;;8.80;99.90;;;;;;5043165;28;20195;-78
2022/12/22 05:02:09;;;;;;;17.47;13.37;;;8.80;99.90;;;;;;5052817;28;20658;-78
2022/12/22 05:04:35;;;;;;;15.17;13.20;;;8.80;99.90;;;;;;5072603;28;20190;-78
2022/12/22 05:07:01;;;;;;;21.03;14.13;;;8.80;99.90;;;;;;5079795;28;20196;-77
2022/12/22 05:09:28;;;;;;;15.63;12.63;;;8.80;99.90;;;;;;5069724;28;20634;-77
2022/12/22 05:11:54;;;;;;;17.47;12.57;;;8.90;99.90;;;;;;5070417;28;20551;-77
2022/12/22 05:14:20;;;;;;;16.13;13.23;;;8.80;99.90;;;;;;5069139;28;20247;-77
2022/12/22 05:16:48;;;;;;;15.93;13.47;;;8.90;99.90;;;;;;5077306;28;20560;-77
2022/12/22 05:19:15;;;;;;;16.33;13.30;;;8.90;99.90;;;;;;5084102;28;20195;-77
2022/12/22 05:21:42;;;;;;;16.97;13.50;;;8.80;99.90;;;;;;5087020;28;20199;-77
2022/12/22 05:24:08;;;;;;;19.10;14.40;;;8.80;99.90;;;;;;5063755;28;20241;-78
2022/12/22 05:26:36;;;;;;;17.60;13.53;;;8.90;99.90;;;;;;5042904;28;20241;-77
2022/12/22 05:29:02;;;;;;;21.60;14.03;;;8.90;99.90;;;;;;5061746;28;20221;-78
2022/12/22 05:31:30;;;;;;;17.73;13.70;;;9.00;99.90;;;;;;5064134;28;20211;-78
2022/12/22 05:33:56;;;;;;;19.20;13.90;;;9.00;99.90;;;;;;5059599;28;20228;-77
2022/12/22 05:36:22;;;;;;;17.53;13.50;;;9.00;99.90;;;;;;5070599;28;20191;-77
2022/12/22 05:38:49;;;;;;;20.53;14.40;;;9.10;99.90;;;;;;5058872;28;20685;-78
2022/12/22 05:41:15;;;;;;;18.20;14.13;;;9.10;99.90;;;;;;5052071;28;20251;-78
2022/12/22 05:43:42;;;;;;;20.87;14.27;;;9.20;99.90;;;;;;5053929;28;20199;-77
2022/12/22 05:46:11;;;;;;;18.47;13.83;;;9.20;99.90;;;;;;5054278;28;20553;-77
2022/12/22 05:48:38;;;;;;;21.43;13.93;;;9.20;99.90;;;;;;5057946;28;20626;-77
2022/12/22 05:51:04;;;;;;;20.40;12.93;;;9.20;99.90;;;;;;5068901;28;20183;-78
2022/12/22 05:53:31;;;;;;;17.57;12.93;;;9.20;99.90;;;;;;5067425;28;20244;-77
2022/12/22 05:55:57;;;;;;;21.20;13.47;;;9.20;99.90;;;;;;5068223;28;20213;-78
2022/12/22 05:58:24;;;;;;;16.40;13.50;;;9.30;99.90;;;;;;5068288;28;20190;-78
2022/12/22 06:00:50;;;;;;;15.83;13.27;;;9.30;99.90;;;;;;5066847;28;20206;-77
2022/12/22 06:03:16;;;;;;;22.73;12.80;;;9.30;99.90;;;;;;5061462;28;20191;-77
2022/12/22 06:05:42;;;;;;;21.50;13.90;;;9.30;99.90;;;;;;5070335;28;20208;-77
2022/12/22 06:08:09;;;;;;;22.57;13.67;;;9.30;99.90;;;;;;5067438;28;20218;-78
2022/12/22 06:10:35;;;;;;;16.67;13.17;;;9.40;99.90;;;;;;5067406;28;20174;-77
2022/12/22 06:13:01;;;;;;;19.13;13.60;;;9.40;99.90;;;;;;5069860;28;20195;-77
2022/12/22 06:15:27;;;;;;;18.33;13.60;;;9.50;99.90;;;;;;5066617;28;20248;-77
2022/12/22 06:17:53;;;;;;;18.90;13.50;;;9.60;99.90;;;;;;5059035;28;20182;-77
2022/12/22 06:20:20;;;;;;;17.40;13.50;;;9.70;99.90;;;;;;5036455;28;20226;-77
2022/12/22 06:22:46;;;;;;;17.90;13.00;;;9.80;99.90;;;;;;5073191;28;20217;-78
2022/12/22 06:25:12;;;;;;;17.20;12.97;;;9.80;99.90;;;;;;5085063;28;20347;-77
2022/12/22 06:27:39;;;;;;;22.40;13.67;;;9.80;99.90;;;;;;5054157;28;20247;-78
2022/12/22 06:30:06;;;;;;;18.27;13.23;;;9.90;99.90;;;;;;5061344;28;20179;-78
2022/12/22 06:32:38;;;;;;;19.50;13.70;;;9.90;99.90;;;;;;5047110;28;20612;-77
2022/12/22 06:35:06;;;;;;;19.67;13.57;;;10.00;99.90;;;;;;5070911;28;20199;-77
2022/12/22 06:37:32;;;;;;;16.37;13.30;;;10.10;99.90;;;;;;5067374;28;20233;-78
2022/12/22 06:39:59;;;;;;;17.77;13.50;;;10.10;99.90;;;;;;5067101;28;20646;-78
2022/12/22 06:45:11;;;;;;;17.07;13.00;;;10.20;99.90;;;;;;5067414;28;20182;-78
2022/12/22 06:47:37;;;;;;;16.80;13.03;;;10.30;99.90;;;;;;5066159;28;20305;-78
2022/12/22 06:50:05;;;;;;;17.60;13.57;;;10.30;99.90;;;;;;5056898;28;20298;-78
2022/12/22 06:52:31;;;;;;;18.50;12.83;;;10.40;99.90;;;;;;5067779;28;20210;-78
2022/12/22 06:54:57;;;;;;;17.47;13.90;;;10.40;99.90;;;;;;5069088;28;20218;-78
2022/12/22 06:57:23;;;;;;;18.63;14.50;;;10.40;99.90;;;;;;5063274;28;20719;-78
2022/12/22 06:59:50;;;;;;;20.13;14.33;;;10.40;99.90;;;;;;5050996;28;20195;-78
2022/12/22 07:02:16;;;;;;;17.10;13.70;;;10.50;99.90;;;;;;5063211;28;20235;-78
2022/12/22 07:04:44;;;;;;;15.10;13.10;;;10.50;99.90;;;;;;5084477;28;20192;-78
2022/12/22 07:07:10;;;;;;;20.47;14.20;;;10.50;99.90;;;;;;5051739;28;20274;-78
2022/12/22 07:09:37;;;;;;;17.53;13.73;;;10.60;99.90;;;;;;5069851;28;20269;-78
2022/12/22 07:12:03;;;;;;;18.30;14.70;;;10.60;99.90;;;;;;5075313;28;20202;-78
2022/12/22 07:14:29;;;;;;;17.33;13.93;;;10.60;99.90;;;;;;5067914;28;20560;-78
2022/12/22 07:16:56;;;;;;;21.70;14.70;;;10.60;99.90;;;;;;5060400;28;20318;-78
2022/12/22 07:19:22;;;;;;;23.07;14.80;;;10.70;99.90;;;;;;5063689;28;20194;-77
2022/12/22 07:21:50;;;;;;;19.50;14.30;;;10.80;99.90;;;;;;5054474;28;20719;-78
2022/12/22 07:24:22;;;;;;;20.50;15.00;;;10.80;99.90;;;;;;5055985;28;20218;-78
2022/12/22 07:26:48;;;;;;;18.37;14.83;;;10.90;99.90;;;;;;5083538;28;20214;-78
2022/12/22 07:29:15;;;;;;;20.07;14.97;;;10.90;99.90;;;;;;5065657;28;20221;-77
2022/12/22 07:31:41;;;;;;;19.13;14.63;;;10.90;99.90;;;;;;5042439;28;20198;-77
2022/12/22 07:34:07;;;;;;;19.47;15.20;;;10.90;99.90;;;;;;5072989;28;20589;-77
2022/12/22 07:36:34;;;;;;;19.57;14.73;;;11.00;99.90;;;;;;5067579;28;20872;-78
2022/12/22 07:39:01;;;;;;;16.80;14.47;;;11.00;99.90;;;;;;5072375;28;20201;-78
2022/12/22 07:44:12;;;;;;;17.80;14.80;;;11.10;99.90;;;;;;5070594;28;20234;-78
2022/12/22 07:46:39;;;;;;;19.87;14.70;;;11.10;99.90;;;;;;5069661;28;20206;-78
2022/12/22 07:51:56;;;;;;;17.63;13.47;;;11.10;99.90;;;;;;5075392;28;20194;-78
2022/12/22 07:54:23;;;;;;;22.67;14.03;;;11.10;99.90;;;;;;5057708;28;20277;-78
2022/12/22 07:56:49;;;;;;;17.33;14.63;;;11.10;99.90;;;;;;5059917;28;20330;-77
2022/12/22 07:59:16;;;;;;;16.90;13.73;;;11.10;99.90;;;;;;5050713;28;20591;-78
2022/12/22 08:01:44;;;;;;;16.17;14.13;;;11.20;99.90;;;;;;5061920;28;20190;-78
2022/12/22 08:04:12;;;;;;;18.77;14.50;;;11.20;99.90;;;;;;5060901;28;20226;-78
2022/12/22 08:06:38;;;;;;;17.87;14.67;;;11.30;99.90;;;;;;5072639;28;20207;-78
2022/12/22 08:09:07;;;;;;;18.80;14.20;;;11.30;99.90;;;;;;5058084;28;20254;-78
2022/12/22 08:11:34;;;;;;;17.93;14.10;;;11.30;99.90;;;;;;5070635;28;20229;-78
2022/12/22 08:14:00;;;;;;;16.53;13.60;;;11.30;99.90;;;;;;5059554;28;20191;-77
2022/12/22 08:16:26;;;;;;;22.53;14.73;;;11.40;99.90;;;;;;5064541;28;20186;-78
2022/12/22 08:18:52;;;;;;;15.33;13.33;;;11.40;99.90;;;;;;5049682;28;20204;-78
2022/12/22 08:21:19;;;;;;;15.93;13.67;;;11.50;99.90;;;;;;5064376;28;20201;-78
2022/12/22 08:23:45;;;;;;;17.67;12.83;;;11.50;99.90;;;;;;5081552;28;20202;-78
2022/12/22 08:26:22;;;;;;;16.73;13.27;;;11.50;99.90;;;;;;5068811;28;20188;-78
2022/12/22 08:29:15;;;;;;;17.90;12.50;;;11.50;99.90;;;;;;5082050;28;20732;-79
2022/12/22 08:31:42;;;;;;;19.10;13.17;;;11.60;99.90;;;;;;5077581;28;20272;-78
2022/12/22 08:34:14;;;;;;;16.90;12.00;;;11.70;99.90;;;;;;5062660;28;20274;-78
2022/12/22 08:36:48;;;;;;;13.80;12.17;;;11.70;99.90;;;;;;5053483;28;20213;-78
2022/12/22 08:39:17;;;;;;;15.03;12.03;;;11.80;99.90;;;;;;5064395;28;20286;-78
2022/12/22 08:41:49;;;;;;;18.03;11.93;;;11.80;99.90;;;;;;5061764;28;20625;-78
2022/12/22 08:44:24;;;;;;;17.07;11.90;;;11.80;99.90;;;;;;5064055;28;20218;-78
2022/12/22 08:46:52;;;;;;;15.83;11.63;;;11.90;99.90;;;;;;5061851;28;20186;-78
2022/12/22 08:49:19;;;;;;;15.60;11.43;;;12.00;99.90;;;;;;5057430;28;20259;-78
2022/12/22 08:51:46;;;;;;;12.03;10.47;;;12.00;99.90;;;;;;5071858;28;20629;-77
2022/12/22 08:54:14;;;;;;;13.53;10.93;;;12.00;99.90;;;;;;5061772;28;20191;-78
2022/12/22 08:56:41;;;;;;;17.30;11.27;;;12.10;99.90;;;;;;5067452;28;20193;-77
2022/12/22 08:59:08;;;;;;;12.37;10.83;;;12.10;99.90;;;;;;5067231;28;20203;-77
2022/12/22 09:01:42;;;;;;;13.87;11.10;;;12.10;99.90;;;;;;5085032;28;20198;-78
2022/12/22 09:04:13;;;;;;;11.83;10.50;;;12.10;99.90;;;;;;5065884;28;20190;-78
2022/12/22 09:06:40;;;;;;;11.83;10.33;;;12.20;99.90;;;;;;5069509;28;20202;-77
2022/12/22 09:09:10;;;;;;;13.77;10.43;;;12.20;99.90;;;;;;5066351;28;20329;-78
2022/12/22 09:11:37;;;;;;;13.63;10.43;;;12.30;99.90;;;;;;5059993;28;20659;-78
2022/12/22 09:14:05;;;;;;;12.37;10.70;;;12.40;99.90;;;;;;5078597;28;20190;-77
2022/12/22 09:16:33;;;;;;;11.27;10.03;;;12.40;99.90;;;;;;5073117;28;20940;-77
2022/12/22 09:19:01;;;;;;;10.97;9.57;;;12.40;99.90;;;;;;5076733;28;20277;-77
2022/12/22 09:21:29;;;;;;;12.50;9.67;;;12.50;99.90;;;;;;5061973;28;20195;-77
2022/12/22 09:23:56;;;;;;;11.40;9.10;;;12.50;99.90;;;;;;5073618;28;20296;-77
2022/12/22 09:26:26;;;;;;;14.63;9.33;;;12.60;99.90;;;;;;5045881;28;20652;-78
2022/12/22 09:28:54;;;;;;;15.20;9.07;;;12.70;99.90;;;;;;5070364;28;20215;-78
2022/12/22 09:31:23;;;;;;;12.57;9.33;;;12.70;99.90;;;;;;5062112;28;20539;-78
2022/12/22 09:33:51;;;;;;;13.37;9.90;;;12.80;99.90;;;;;;5070632;28;20201;-78
2022/12/22 09:36:22;;;;;;;16.63;11.07;;;12.90;99.90;;;;;;5065947;28;20186;-78
2022/12/22 09:38:49;;;;;;;12.90;9.20;;;12.90;99.90;;;;;;5062605;28;20186;-78
2022/12/22 09:41:19;;;;;;;13.90;9.83;;;13.00;99.90;;;;;;5053411;28;20182;-78
2022/12/22 09:43:46;;;;;;;13.63;9.00;;;13.00;99.90;;;;;;5066428;28;20205;-78
2022/12/22 09:46:25;;;;;;;11.40;8.43;;;13.10;99.90;;;;;;5079412;28;20222;-78
2022/12/22 09:48:53;;;;;;;10.83;8.60;;;13.10;99.90;;;;;;5067616;28;20226;-78
2022/12/22 09:51:21;;;;;;;11.83;8.50;;;13.20;99.90;;;;;;5081510;28;20186;-78
2022/12/22 09:53:59;;;;;;;13.83;8.90;;;13.20;99.90;;;;;;5062745;28;20186;-78
2022/12/22 09:56:29;;;;;;;11.20;8.83;;;13.20;99.90;;;;;;5058509;28;20445;-78
2022/12/22 09:58:57;;;;;;;13.33;8.57;;;13.30;99.90;;;;;;5080565;28;20199;-78
2022/12/22 10:01:59;;;;;;;14.03;8.90;;;13.40;99.90;;;;;;5064052;28;20616;-78
2022/12/22 10:05:03;;;;;;;16.77;8.50;;;13.40;99.90;;;;;;5075109;28;20188;-78
2022/12/22 10:07:41;;;;;;;17.63;9.50;;;13.40;99.90;;;;;;5066494;28;20276;-78
2022/12/22 10:10:26;;;;;;;14.70;9.37;;;13.40;99.90;;;;;;5066914;28;20261;-78
2022/12/22 10:12:56;;;;;;;12.67;9.13;;;13.40;99.90;;;;;;5065620;28;20876;-78
2022/12/22 10:15:24;;;;;;;12.37;9.47;;;13.40;99.90;;;;;;5066815;28;20195;-78
2022/12/22 10:18:27;;;;;;;11.73;9.30;;;13.50;99.90;;;;;;5067294;28;20190;-78
2022/12/22 10:21:13;;;;;;;21.57;9.00;;;13.50;99.90;;;;;;5058236;28;20202;-78
2022/12/22 10:23:45;;;;;;;15.20;9.43;;;13.50;99.90;;;;;;5050822;28;20259;-78
2022/12/22 10:26:18;;;;;;;12.20;9.90;;;13.60;99.90;;;;;;5077898;28;20338;-78
2022/12/22 10:28:58;;;;;;;14.43;9.47;;;13.70;99.90;;;;;;5087494;28;20214;-78
2022/12/22 10:31:28;;;;;;;10.93;9.30;;;13.70;99.90;;;;;;5067284;28;20218;-78
2022/12/22 10:34:11;;;;;;;11.63;9.70;;;13.80;99.90;;;;;;5073517;28;20278;-78
2022/12/22 10:36:39;;;;;;;14.03;10.20;;;13.80;99.90;;;;;;5075039;28;20712;-78
2022/12/22 10:39:17;;;;;;;18.90;10.40;;;14.00;99.90;;;;;;5088306;28;20202;-78
2022/12/22 10:41:48;;;;;;;17.73;10.53;;;14.00;99.90;;;;;;5057168;28;20277;-78
2022/12/22 10:44:15;;;;;;;14.13;10.23;;;14.00;99.90;;;;;;5071850;28;20194;-78
2022/12/22 10:46:52;;;;;;;16.90;10.30;;;14.10;99.90;;;;;;5053254;28;20681;-78
2022/12/22 10:49:43;;;;;;;12.40;9.63;;;14.20;99.90;;;;;;5087749;28;20210;-78
2022/12/22 10:52:16;;;;;;;15.80;9.70;;;14.30;99.90;;;;;;5071551;28;20630;-78
2022/12/22 10:54:44;;;;;;;14.63;10.73;;;14.40;99.90;;;;;;5074423;28;20190;-78
2022/12/22 10:57:15;;;;;;;12.40;9.57;;;14.40;99.90;;;;;;5068442;28;20259;-78
2022/12/22 11:00:01;;;;;;;13.07;10.03;;;14.50;99.90;;;;;;5071921;28;20222;-78
2022/12/22 11:02:38;;;;;;;13.07;9.03;;;14.50;99.90;;;;;;5059723;28;20213;-78
2022/12/22 11:05:10;;;;;;;13.07;10.07;;;14.50;99.90;;;;;;5091091;28;20191;-78
2022/12/22 11:07:44;;;;;;;13.10;10.10;;;14.40;99.90;;;;;;5088814;28;20289;-78
2022/12/22 11:10:13;;;;;;;16.13;9.90;;;14.30;99.90;;;;;;5066403;28;20205;-78
2022/12/22 11:13:16;;;;;;;15.13;10.17;;;14.30;99.90;;;;;;5069314;28;20187;-78
2022/12/22 11:16:12;;;;;;;12.93;10.03;;;14.20;99.90;;;;;;5069044;28;20679;-78
2022/12/22 11:18:54;;;;;;;13.80;10.53;;;14.20;99.90;;;;;;5044519;28;20203;-78
2022/12/22 11:21:50;;;;;;;13.33;9.93;;;14.10;99.90;;;;;;5081644;28;20181;-78
2022/12/22 11:24:41;;;;;;;11.47;9.43;;;14.10;99.90;;;;;;5091742;28;20206;-78
2022/12/22 11:27:55;;;;;;;11.67;9.90;;;14.20;99.90;;;;;;5072104;28;20191;-78
2022/12/22 11:30:36;;;;;;;15.07;10.93;;;14.20;99.90;;;;;;5073527;28;20229;-78
2022/12/22 11:33:24;;;;;;;18.07;10.87;;;14.10;99.90;;;;;;5070070;28;20244;-78
2022/12/22 11:36:05;;;;;;;14.47;10.77;;;14.10;99.90;;;;;;5082838;28;20278;-78
2022/12/22 11:39:02;;;;;;;14.30;10.43;;;14.10;99.90;;;;;;5054331;28;20187;-78
2022/12/22 11:42:09;;;;;;;16.17;10.63;;;14.10;99.90;;;;;;5067663;28;20187;-78
2022/12/22 11:45:18;;;;;;;16.90;11.00;;;14.10;99.90;;;;;;5049513;28;20183;-78
2022/12/22 11:48:35;;;;;;;14.10;10.70;;;14.10;99.90;;;;;;5055817;28;20266;-78
2022/12/22 11:51:30;;;;;;;14.10;10.77;;;14.00;99.90;;;;;;5053462;28;20179;-78
2022/12/22 11:54:27;;;;;;;13.60;10.57;;;14.00;99.90;;;;;;5069721;28;20190;-78
2022/12/22 11:57:18;;;;;;;14.50;11.00;;;14.00;99.90;;;;;;5050032;28;20178;-78
2022/12/22 12:00:14;;;;;;;13.10;10.63;;;14.00;99.90;;;;;;5060746;28;20598;-78
2022/12/22 12:03:12;;;;;;;18.27;11.20;;;14.00;99.90;;;;;;5076524;28;20273;-78
2022/12/22 12:06:25;;;;;;;17.10;11.93;;;14.00;99.90;;;;;;5084672;28;20183;-78
2022/12/22 12:09:18;;;;;;;16.53;10.30;;;14.00;99.90;;;;;;5065250;28;20203;-78
2022/12/22 12:12:48;;;;;;;14.97;11.07;;;14.00;99.90;;;;;;5080003;28;20187;-78
2022/12/22 12:15:32;;;;;;;15.77;11.57;;;14.00;99.90;;;;;;5053591;28;20201;-78
2022/12/22 12:18:31;;;;;;;15.83;11.03;;;14.00;99.90;;;;;;5078979;28;20182;-78
2022/12/22 12:21:26;;;;;;;15.63;11.57;;;14.00;99.90;;;;;;5054312;28;20191;-78
2022/12/22 12:24:43;;;;;;;13.87;10.97;;;14.00;99.90;;;;;;5068051;28;20206;-78
2022/12/22 12:27:54;;;;;;;13.70;11.27;;;14.00;99.90;;;;;;5051709;28;20215;-78
2022/12/22 12:30:25;;;;;;;15.53;10.63;;;14.00;99.90;;;;;;5063864;28;20236;-78
2022/12/22 12:33:04;;;;;;;14.53;11.30;;;14.00;99.90;;;;;;5056334;28;20271;-78
2022/12/22 12:35:59;;;;;;;15.00;11.23;;;14.00;99.90;;;;;;5061969;28;20198;-78
2022/12/22 12:38:33;;;;;;;17.17;11.90;;;14.10;99.90;;;;;;5074387;28;20186;-78
2022/12/22 12:41:20;;;;;;;15.30;10.97;;;14.00;99.90;;;;;;5069325;28;20643;-78
2022/12/22 12:43:51;;;;;;;16.37;11.37;;;14.00;99.90;;;;;;5060995;28;20183;-78
2022/12/22 12:46:54;;;;;;;14.83;11.37;;;14.10;99.90;;;;;;5069647;28;20647;-78
2022/12/22 12:49:37;;;;;;;14.07;10.83;;;14.20;99.90;;;;;;5066891;28;20229;-78
2022/12/22 12:52:06;;;;;;;13.67;11.17;;;14.30;99.90;;;;;;5050540;28;20540;-78
2022/12/22 12:54:38;;;;;;;15.23;11.10;;;14.30;99.90;;;;;;5075679;28;20248;-78
2022/12/22 12:57:29;;;;;;;12.90;10.57;;;14.50;99.90;;;;;;5046942;28;20193;-78
2022/12/22 12:59:58;;;;;;;15.47;9.90;;;14.50;99.90;;;;;;5068393;28;20282;-78
2022/12/22 13:02:28;;;;;;;16.37;11.80;;;14.50;99.90;;;;;;5069816;28;20175;-78
2022/12/22 13:05:32;;;;;;;16.07;10.27;;;14.50;99.90;;;;;;5051918;28;20540;-78
2022/12/22 13:08:25;;;;;;;13.33;10.27;;;14.60;99.90;;;;;;5052556;28;20223;-78
2022/12/22 13:10:55;;;;;;;13.33;10.00;;;14.60;99.90;;;;;;5070359;28;20190;-78
2022/12/22 13:13:24;;;;;;;13.87;9.93;;;14.60;99.90;;;;;;5067457;28;20789;-78
2022/12/22 13:16:02;;;;;;;12.70;9.83;;;14.60;99.90;;;;;;5069191;28;20213;-78
2022/12/22 13:18:45;;;;;;;12.67;9.67;;;14.50;99.90;;;;;;5051723;28;20511;-78
2022/12/22 13:21:24;;;;;;;13.03;9.87;;;14.50;99.90;;;;;;5085006;28;20265;-78
2022/12/22 13:24:22;;;;;;;12.03;9.77;;;14.60;99.90;;;;;;5069476;28;20198;-78
2022/12/22 13:26:53;;;;;;;14.87;9.70;;;14.60;99.90;;;;;;5067025;28;20202;-78
2022/12/22 13:29:43;;;;;;;14.77;10.37;;;14.50;99.90;;;;;;5054223;28;20206;-78
2022/12/22 13:32:27;;;;;;;11.30;9.53;;;14.50;99.90;;;;;;5068735;28;20598;-78
2022/12/22 13:35:16;;;;;;;10.33;9.03;;;14.40;99.90;;;;;;5049758;28;20183;-78
2022/12/22 13:37:49;;;;;;;13.67;9.13;;;14.40;99.90;;;;;;5058448;28;20643;-78
2022/12/22 13:40:40;;;;;;;12.60;8.80;;;14.40;99.90;;;;;;5067398;28;20198;-78
2022/12/22 13:43:15;;;;;;;11.23;9.50;;;14.40;99.90;;;;;;5083768;28;20185;-78
2022/12/22 13:45:53;;;;;;;12.50;8.73;;;14.40;99.90;;;;;;5079387;28;20652;-78
2022/12/22 13:48:38;;;;;;;13.97;8.90;;;14.40;99.90;;;;;;5071007;28;20803;-78
2022/12/22 13:51:26;;;;;;;11.67;9.17;;;14.30;99.90;;;;;;5079655;28;20186;-78
2022/12/22 13:54:22;;;;;;;12.73;9.30;;;14.30;99.90;;;;;;5068420;28;20190;-78
2022/12/22 13:56:55;;;;;;;11.40;9.10;;;14.30;99.90;;;;;;5074367;28;20310;-78
2022/12/22 13:59:28;;;;;;;15.03;9.30;;;14.20;99.90;;;;;;5049235;28;20193;-78
2022/12/22 14:02:08;;;;;;;13.30;9.00;;;14.20;99.90;;;;;;5070890;28;20178;-78
2022/12/22 14:04:38;;;;;;;13.67;9.30;;;14.10;99.90;;;;;;5068035;28;20281;-78
2022/12/22 14:07:16;;;;;;;12.40;9.60;;;14.10;99.90;;;;;;5075548;28;20244;-78
2022/12/22 14:09:49;;;;;;;14.70;9.53;;;14.10;99.90;;;;;;5065358;28;20222;-77
2022/12/22 14:12:27;;;;;;;17.53;9.53;;;14.00;99.90;;;;;;5063569;28;20183;-78
2022/12/22 14:14:56;;;;;;;12.30;9.40;;;14.00;99.90;;;;;;5095105;28;20266;-77
2022/12/22 14:17:34;;;;;;;13.23;9.50;;;13.90;99.90;;;;;;5081803;28;20467;-78
2022/12/22 14:20:26;;;;;;;12.17;9.00;;;13.90;99.90;;;;;;5071139;28;21875;-78
2022/12/22 14:23:11;;;;;;;12.23;9.20;;;13.80;99.90;;;;;;5046947;28;20651;-78
2022/12/22 14:25:44;;;;;;;12.07;9.57;;;13.70;99.90;;;;;;5063712;28;20844;-78
2022/12/22 14:28:26;;;;;;;12.37;9.60;;;13.60;99.90;;;;;;5046369;28;20304;-78
2022/12/22 14:30:59;;;;;;;12.63;9.63;;;13.50;99.90;;;;;;5078680;28;20277;-77
2022/12/22 14:33:26;;;;;;;10.53;9.17;;;13.50;99.90;;;;;;5063827;28;20509;-78
2022/12/22 14:36:14;;;;;;;13.23;9.70;;;13.40;99.90;;;;;;5059047;28;20270;-77
2022/12/22 14:38:51;;;;;;;13.07;9.30;;;13.40;99.90;;;;;;5073751;28;20193;-78
2022/12/22 14:41:42;;;;;;;12.33;9.60;;;13.30;99.90;;;;;;5067496;28;20186;-78
2022/12/22 14:44:23;;;;;;;12.83;9.97;;;13.20;99.90;;;;;;5065860;28;20207;-78
2022/12/22 14:47:15;;;;;;;14.87;10.83;;;13.20;99.90;;;;;;5083563;28;20198;-78
2022/12/22 14:50:01;;;;;;;18.80;11.13;;;13.10;99.90;;;;;;5061106;28;20795;-78
2022/12/22 14:52:50;;;;;;;15.23;10.03;;;13.10;99.90;;;;;;5061226;28;20645;-78
2022/12/22 14:55:40;;;;;;;14.63;11.10;;;13.00;99.90;;;;;;5059390;28;20191;-77
2022/12/22 14:58:28;;;;;;;16.57;11.30;;;12.90;99.90;;;;;;5037804;28;20198;-78
2022/12/22 15:01:27;;;;;;;19.27;11.03;;;12.80;99.90;;;;;;5064947;28;20675;-78
2022/12/22 15:04:16;;;;;;;15.87;11.20;;;12.80;99.90;;;;;;5069252;28;20213;-77
2022/12/22 15:06:48;;;;;;;15.67;11.40;;;12.70;99.90;;;;;;5061756;28;20761;-78
2022/12/22 15:09:14;;;;;;;14.67;11.83;;;12.70;99.90;;;;;;5074683;28;20263;-77
2022/12/22 15:12:16;;;;;;;14.33;11.30;;;12.60;99.90;;;;;;5064118;28;20226;-77
2022/12/22 15:14:46;;;;;;;16.07;11.60;;;12.60;99.90;;;;;;5041094;28;20281;-78
2022/12/22 15:17:24;;;;;;;16.57;12.53;;;12.50;99.90;;;;;;5068048;28;20887;-78
2022/12/22 15:19:56;;;;;;;15.43;11.40;;;12.50;99.90;;;;;;5067575;28;20616;-78
2022/12/22 15:22:23;;;;;;;17.43;12.07;;;12.50;99.90;;;;;;5078638;28;20555;-79
2022/12/22 15:24:49;;;;;;;16.33;12.00;;;12.40;99.90;;;;;;5053577;28;20220;-78
2022/12/22 15:27:15;;;;;;;15.53;11.93;;;12.40;99.90;;;;;;5071512;28;20281;-78
2022/12/22 15:29:41;;;;;;;15.53;11.80;;;12.30;99.90;;;;;;5074135;28;20709;-78
2022/12/22 15:32:13;;;;;;;14.77;11.93;;;12.40;99.90;;;;;;5067612;28;20183;-78
2022/12/22 15:34:40;;;;;;;15.83;12.00;;;12.40;99.90;;;;;;5055280;28;20269;-78
2022/12/22 15:37:10;;;;;;;16.47;12.20;;;12.40;99.90;;;;;;5059475;28;20179;-77
2022/12/22 15:39:37;;;;;;;16.87;12.20;;;12.30;99.90;;;;;;5068197;28;20652;-78
2022/12/22 15:42:03;;;;;;;15.83;12.93;;;12.20;99.90;;;;;;5064765;28;20194;-78
2022/12/22 15:44:30;;;;;;;19.23;12.57;;;12.20;99.90;;;;;;5058376;28;20187;-78
2022/12/22 15:46:57;;;;;;;18.43;12.73;;;12.30;99.90;;;;;;5050507;28;20718;-78
2022/12/22 15:49:28;;;;;;;16.73;12.50;;;12.30;99.90;;;;;;5068722;28;20210;-78
2022/12/22 15:51:59;;;;;;;15.97;12.00;;;12.30;99.90;;;;;;5071444;28;20546;-78
2022/12/22 15:54:28;;;;;;;17.97;12.67;;;12.30;99.90;;;;;;5073595;28;20179;-78
2022/12/22 15:56:55;;;;;;;15.17;11.57;;;12.30;99.90;;;;;;5067586;28;20528;-78
2022/12/22 15:59:27;;;;;;;13.63;11.73;;;12.30;99.90;;;;;;5060992;28;20255;-78
2022/12/22 16:01:58;;;;;;;17.00;11.83;;;12.40;99.90;;;;;;5068677;28;20194;-78
2022/12/22 16:04:27;;;;;;;17.70;11.07;;;12.40;99.90;;;;;;5065482;28;20183;-78
2022/12/22 16:06:55;;;;;;;24.70;12.87;;;12.50;99.90;;;;;;5051875;28;20191;-78
2022/12/22 16:09:41;;;;;;;15.97;11.47;;;12.50;99.90;;;;;;5076660;28;20207;-78
2022/12/22 16:12:18;;;;;;;15.63;11.93;;;12.50;99.90;;;;;;5070419;28;20186;-78
2022/12/22 16:14:50;;;;;;;18.13;11.07;;;12.50;99.90;;;;;;5061540;28;20187;-78
2022/12/22 16:17:20;;;;;;;17.17;11.47;;;12.40;99.90;;;;;;5074466;28;20182;-78
2022/12/22 16:19:47;;;;;;;16.97;12.60;;;12.40;99.90;;;;;;5074519;28;20566;-78
2022/12/22 16:22:20;;;;;;;22.43;12.93;;;12.30;99.90;;;;;;5095919;28;20190;-78
2022/12/22 16:24:52;;;;;;;17.90;13.50;;;12.30;99.90;;;;;;5087990;28;20194;-78
2022/12/22 16:27:19;;;;;;;15.93;12.43;;;12.30;99.90;;;;;;5074157;28;20497;-78
2022/12/22 16:29:52;;;;;;;17.43;13.10;;;12.20;99.90;;;;;;5074632;28;20695;-78
2022/12/22 16:32:31;;;;;;;17.03;12.80;;;12.20;99.90;;;;;;5070360;28;20179;-78
2022/12/22 16:35:29;;;;;;;17.23;13.27;;;12.10;99.90;;;;;;5077802;28;20272;-78
2022/12/22 16:37:58;;;;;;;16.10;13.10;;;12.10;99.90;;;;;;5062648;28;20622;-78
2022/12/22 16:40:27;;;;;;;15.87;13.90;;;12.10;99.90;;;;;;5063916;28;20183;-78
2022/12/22 16:43:10;;;;;;;16.03;13.17;;;12.00;99.90;;;;;;5086459;28;20183;-78
2022/12/22 16:45:37;;;;;;;17.03;13.83;;;12.00;99.90;;;;;;5063970;28;20284;-78
2022/12/22 16:48:20;;;;;;;15.97;13.80;;;11.90;99.90;;;;;;5067560;28;20218;-77
2022/12/22 16:50:47;;;;;;;16.77;13.57;;;11.90;99.90;;;;;;5065593;28;20186;-77